createdAt,value
2019-02-15T00:00:43.290Z,0.22
2019-02-15T00:03:11.182Z,0.25
2019-02-15T00:05:42.774Z,0.11
2019-02-15T00:08:10.851Z,0.14
2019-02-15T00:10:38.799Z,0.05
2019-02-15T00:13:13.246Z,0.03
2019-02-15T00:15:36.896Z,-0.02
2019-02-15T00:18:24.478Z,-0.27
2019-02-15T00:20:57.020Z,-0.36
2019-02-15T00:23:25.062Z,-0.42
2019-02-15T00:25:52.955Z,-0.40
2019-02-15T00:28:20.928Z,-0.30
2019-02-15T00:30:48.926Z,-0.29
2019-02-15T00:33:16.943Z,-0.41
2019-02-15T00:35:44.720Z,-0.46
2019-02-15T00:38:12.796Z,-0.43
2019-02-15T00:40:40.753Z,-0.29
2019-02-15T00:43:08.828Z,-0.28
2019-02-15T00:45:45.446Z,-0.22
2019-02-15T00:48:16.273Z,-0.26
2019-02-15T00:50:52.795Z,-0.33
2019-02-15T00:53:49.117Z,-0.43
2019-02-15T00:56:30.202Z,-0.45
2019-02-15T00:59:17.713Z,-0.35
2019-02-15T01:02:07.874Z,-0.29
2019-02-15T01:05:04.461Z,-0.25
2019-02-15T01:07:52.305Z,-0.21
2019-02-15T01:10:39.800Z,-0.23
2019-02-15T01:13:10.734Z,-0.23
2019-02-15T01:15:38.830Z,-0.20
2019-02-15T01:18:06.954Z,-0.27
2019-02-15T01:20:34.891Z,-0.22
2019-02-15T01:23:02.792Z,-0.34
2019-02-15T01:25:37.335Z,-0.29
2019-02-15T01:28:14.129Z,-0.28
2019-02-15T01:31:01.993Z,-0.26
2019-02-15T01:33:38.654Z,-0.28
2019-02-15T01:36:35.506Z,-0.23
2019-02-15T01:39:25.721Z,-0.41
2019-02-15T01:42:28.391Z,-0.45
2019-02-15T01:45:05.061Z,-0.38
2019-02-15T01:47:37.041Z,-0.29
2019-02-15T01:50:06.135Z,-0.32
2019-02-15T01:52:34.183Z,-0.34
2019-02-15T01:55:02.377Z,-0.35
2019-02-15T01:57:30.528Z,-0.47
2019-02-15T01:59:58.646Z,-0.61
2019-02-15T02:02:28.714Z,-0.59
2019-02-15T02:04:56.645Z,-0.59
2019-02-15T02:07:25.005Z,-0.55
2019-02-15T02:09:53.121Z,-0.59
2019-02-15T02:12:21.218Z,-0.59
2019-02-15T02:14:49.176Z,-0.63
2019-02-15T02:17:17.047Z,-0.61
2019-02-15T02:19:45.389Z,-0.69
2019-02-15T02:22:14.423Z,-0.67
2019-02-15T02:24:42.177Z,-0.77
2019-02-15T02:27:10.453Z,-0.98
2019-02-15T02:29:38.433Z,-0.95
2019-02-15T02:32:06.505Z,-0.86
2019-02-15T02:34:34.610Z,-0.81
2019-02-15T02:37:02.572Z,-0.87
2019-02-15T02:39:30.521Z,-1.00
2019-02-15T02:41:58.406Z,-1.10
2019-02-15T02:44:26.627Z,-1.25
2019-02-15T02:46:54.440Z,-1.28
2019-02-15T02:49:22.538Z,-1.31
2019-02-15T02:51:50.381Z,-1.31
2019-02-15T02:54:18.331Z,-1.21
2019-02-15T02:56:46.394Z,-1.27
2019-02-15T02:59:14.461Z,-1.29
2019-02-15T03:01:42.538Z,-1.26
2019-02-15T03:04:10.506Z,-1.23
2019-02-15T03:06:38.333Z,-1.18
2019-02-15T03:09:08.943Z,-1.08
2019-02-15T03:11:38.110Z,-1.03
2019-02-15T03:14:11.609Z,-1.01
2019-02-15T03:16:36.236Z,-1.01
2019-02-15T03:19:04.286Z,-1.03
2019-02-15T03:21:32.202Z,-1.06
2019-02-15T03:24:00.164Z,-1.02
2019-02-15T03:26:28.089Z,-1.05
2019-02-15T03:28:56.098Z,-1.12
2019-02-15T03:31:23.974Z,-1.19
2019-02-15T03:33:51.916Z,-1.30
2019-02-15T03:36:39.260Z,-1.41
2019-02-15T03:39:12.797Z,-1.41
2019-02-15T03:41:40.597Z,-1.41
2019-02-15T03:44:08.480Z,-1.37
2019-02-15T03:46:37.211Z,-1.26
2019-02-15T03:49:05.098Z,-1.33
2019-02-15T03:51:32.982Z,-1.28
2019-02-15T03:54:01.246Z,-1.25
2019-02-15T03:56:29.183Z,-1.21
2019-02-15T03:58:57.203Z,-1.21
2019-02-15T04:01:25.501Z,-1.23
2019-02-15T04:03:53.563Z,-1.25
2019-02-15T04:06:21.654Z,-1.24
2019-02-15T04:08:49.713Z,-1.28
2019-02-15T04:11:17.815Z,-1.25
2019-02-15T04:13:45.859Z,-1.24
2019-02-15T04:16:13.909Z,-1.24
2019-02-15T04:18:41.772Z,-1.28
2019-02-15T04:21:09.893Z,-1.35
2019-02-15T04:23:37.950Z,-1.40
2019-02-15T04:26:05.995Z,-1.48
2019-02-15T04:28:34.043Z,-1.45
2019-02-15T04:31:02.313Z,-1.36
2019-02-15T04:33:30.159Z,-1.37
2019-02-15T04:35:58.246Z,-1.40
2019-02-15T04:38:26.259Z,-1.52
2019-02-15T04:40:54.326Z,-1.56
2019-02-15T04:43:22.137Z,-1.54
2019-02-15T04:45:50.422Z,-1.55
2019-02-15T04:48:18.362Z,-1.44
2019-02-15T04:50:46.279Z,-1.38
2019-02-15T04:53:14.289Z,-1.33
2019-02-15T04:55:42.265Z,-1.45
2019-02-15T04:58:10.081Z,-1.41
2019-02-15T05:00:38.216Z,-1.38
2019-02-15T05:03:06.073Z,-1.34
2019-02-15T05:05:34.095Z,-1.33
2019-02-15T05:08:01.931Z,-1.29
2019-02-15T05:10:29.841Z,-1.31
2019-02-15T05:12:57.706Z,-1.35
2019-02-15T05:15:25.634Z,-1.32
2019-02-15T05:17:53.445Z,-1.40
2019-02-15T05:20:21.906Z,-1.36
2019-02-15T05:22:49.765Z,-1.40
2019-02-15T05:25:17.972Z,-1.50
2019-02-15T05:27:45.827Z,-1.43
2019-02-15T05:30:13.868Z,-1.45
2019-02-15T05:32:42.825Z,-1.45
2019-02-15T05:35:10.939Z,-1.58
2019-02-15T05:37:38.999Z,-1.57
2019-02-15T05:40:06.924Z,-1.53
2019-02-15T05:42:35.107Z,-1.49
2019-02-15T05:45:04.441Z,-1.52
2019-02-15T05:47:33.692Z,-1.53
2019-02-15T05:50:01.518Z,-1.62
2019-02-15T05:52:29.627Z,-1.70
2019-02-15T05:54:57.518Z,-1.65
2019-02-15T05:57:25.581Z,-1.60
2019-02-15T05:59:53.360Z,-1.58
2019-02-15T06:02:21.248Z,-1.53
2019-02-15T06:04:49.089Z,-1.54
2019-02-15T06:07:17.449Z,-1.54
2019-02-15T06:09:45.447Z,-1.62
2019-02-15T06:12:13.584Z,-1.68
2019-02-15T06:14:41.379Z,-1.65
2019-02-15T06:17:09.336Z,-1.61
2019-02-15T06:19:37.193Z,-1.56
2019-02-15T06:22:05.264Z,-1.51
2019-02-15T06:24:33.162Z,-1.45
2019-02-15T06:27:01.113Z,-1.40
2019-02-15T06:29:28.985Z,-1.36
2019-02-15T06:31:56.934Z,-1.27
2019-02-15T06:34:24.726Z,-1.23
2019-02-15T06:36:52.787Z,-1.18
2019-02-15T06:39:20.578Z,-1.11
2019-02-15T06:41:48.544Z,-1.04
2019-02-15T06:44:17.612Z,-0.96
2019-02-15T06:46:45.460Z,-0.86
2019-02-15T06:49:13.490Z,-0.79
2019-02-15T06:51:41.300Z,-0.83
2019-02-15T06:54:09.111Z,-0.77
2019-02-15T06:56:37.040Z,-0.70
2019-02-15T06:59:16.949Z,-0.67
2019-02-15T07:01:50.751Z,-0.51
2019-02-15T07:04:26.422Z,-0.23
2019-02-15T07:06:54.309Z,-0.26
2019-02-15T07:09:22.123Z,-0.10
2019-02-15T07:11:50.336Z,-0.01
2019-02-15T07:14:18.128Z,0.14
2019-02-15T07:16:46.101Z,0.35
2019-02-15T07:19:14.103Z,0.81
2019-02-15T07:21:42.178Z,1.31
2019-02-15T07:24:10.134Z,1.40
2019-02-15T07:26:37.856Z,1.84
2019-02-15T07:29:05.490Z,2.22
2019-02-15T07:31:33.065Z,2.58
2019-02-15T07:34:00.799Z,2.88
2019-02-15T07:36:28.380Z,3.09
2019-02-15T07:38:56.295Z,3.07
2019-02-15T07:41:24.283Z,3.39
2019-02-15T07:43:52.221Z,3.74
2019-02-15T07:46:20.316Z,3.79
2019-02-15T07:48:48.083Z,4.07
2019-02-15T07:51:16.088Z,4.21
2019-02-15T07:53:43.766Z,3.67
2019-02-15T07:56:11.631Z,3.97
2019-02-15T07:58:39.417Z,4.47
2019-02-15T08:01:07.075Z,5.07
2019-02-15T08:03:34.642Z,5.36
2019-02-15T08:06:02.254Z,5.70
2019-02-15T08:08:29.927Z,5.87
2019-02-15T08:10:57.547Z,6.37
2019-02-15T08:13:25.153Z,6.68
2019-02-15T08:15:52.678Z,7.12
2019-02-15T08:18:20.333Z,7.15
2019-02-15T08:20:48.062Z,7.40
2019-02-15T08:23:15.992Z,7.62
2019-02-15T08:25:43.599Z,7.79
2019-02-15T08:28:11.604Z,7.89
2019-02-15T08:30:39.653Z,7.84
2019-02-15T08:33:07.621Z,8.31
2019-02-15T08:35:35.162Z,8.57
2019-02-15T08:38:02.772Z,8.83
2019-02-15T08:40:30.324Z,9.21
2019-02-15T08:42:57.906Z,9.47
2019-02-15T08:45:25.546Z,9.78
2019-02-15T08:47:53.220Z,9.62
2019-02-15T08:50:20.862Z,10.33
2019-02-15T08:52:48.499Z,10.40
2019-02-15T08:55:16.067Z,10.14
2019-02-15T08:57:43.714Z,10.23
2019-02-15T09:00:11.322Z,10.75
2019-02-15T09:02:38.918Z,10.07
2019-02-15T09:05:08.182Z,10.73
2019-02-15T09:07:35.792Z,10.74
2019-02-15T09:10:04.775Z,11.12
2019-02-15T09:12:32.890Z,11.03
2019-02-15T09:15:00.975Z,11.18
2019-02-15T09:17:29.019Z,11.52
2019-02-15T09:19:56.942Z,11.51
2019-02-15T09:22:24.936Z,11.88
2019-02-15T09:24:52.489Z,11.68
2019-02-15T09:27:28.666Z,11.92
2019-02-15T09:29:56.283Z,12.27
2019-02-15T09:32:23.989Z,12.55
2019-02-15T09:34:51.877Z,12.54
2019-02-15T09:37:19.484Z,12.71
2019-02-15T09:39:47.055Z,13.08
2019-02-15T09:42:14.646Z,12.72
2019-02-15T09:44:42.230Z,12.91
2019-02-15T09:47:09.851Z,12.56
2019-02-15T09:49:37.506Z,12.63
2019-02-15T09:52:05.130Z,13.15
2019-02-15T09:54:32.682Z,13.23
2019-02-15T09:57:00.291Z,13.16
2019-02-15T09:59:27.828Z,13.28
2019-02-15T10:01:55.426Z,13.36
2019-02-15T10:04:23.081Z,12.97
2019-02-15T10:06:50.796Z,12.82
2019-02-15T10:09:18.437Z,13.37
2019-02-15T10:11:46.009Z,13.36
2019-02-15T10:14:13.625Z,13.88
2019-02-15T10:16:41.206Z,14.02
2019-02-15T10:19:09.848Z,13.96
2019-02-15T10:21:37.496Z,13.85
2019-02-15T10:24:05.127Z,13.89
2019-02-15T10:26:32.724Z,14.56
2019-02-15T10:29:00.368Z,14.85
2019-02-15T10:31:28.330Z,14.59
2019-02-15T10:33:55.963Z,14.73
2019-02-15T10:36:23.535Z,14.64
2019-02-15T10:38:51.162Z,14.75
2019-02-15T10:41:18.750Z,15.20
2019-02-15T10:43:46.389Z,15.28
2019-02-15T10:46:13.994Z,15.42
2019-02-15T10:48:41.583Z,14.69
2019-02-15T10:51:09.165Z,14.37
2019-02-15T10:53:36.810Z,14.67
2019-02-15T10:56:04.442Z,14.65
2019-02-15T10:58:33.059Z,14.50
2019-02-15T11:01:00.637Z,15.07
2019-02-15T11:03:28.207Z,15.27
2019-02-15T11:05:56.861Z,15.11
2019-02-15T11:08:24.514Z,15.33
2019-02-15T11:10:52.128Z,15.26
2019-02-15T11:13:19.729Z,15.15
2019-02-15T11:15:47.294Z,15.41
2019-02-15T11:18:15.003Z,15.40
2019-02-15T11:20:42.625Z,15.45
2019-02-15T11:23:10.255Z,15.42
2019-02-15T11:25:37.816Z,14.97
2019-02-15T11:28:05.403Z,15.07
2019-02-15T11:30:32.975Z,15.02
2019-02-15T11:33:00.571Z,15.21
2019-02-15T11:35:28.155Z,15.41
2019-02-15T11:37:55.738Z,15.33
2019-02-15T11:40:23.340Z,15.07
2019-02-15T11:42:50.977Z,15.25
2019-02-15T11:45:18.717Z,14.84
2019-02-15T11:47:46.321Z,15.06
2019-02-15T11:50:13.988Z,15.09
2019-02-15T11:52:41.525Z,14.96
2019-02-15T11:55:09.270Z,15.33
2019-02-15T11:57:36.918Z,15.53
2019-02-15T12:00:13.843Z,15.38
2019-02-15T12:02:34.791Z,15.18
2019-02-15T12:05:02.496Z,15.51
2019-02-15T12:07:30.086Z,15.62
2019-02-15T12:09:57.781Z,15.43
2019-02-15T12:12:25.342Z,15.19
2019-02-15T12:14:53.082Z,15.46
2019-02-15T12:17:20.727Z,15.71
2019-02-15T12:19:48.432Z,15.81
2019-02-15T12:22:16.148Z,15.62
2019-02-15T12:24:43.797Z,15.80
2019-02-15T12:27:11.508Z,16.10
2019-02-15T12:29:39.115Z,15.96
2019-02-15T12:32:06.685Z,15.59
2019-02-15T12:34:34.312Z,15.47
2019-02-15T12:37:01.878Z,15.65
2019-02-15T12:39:29.559Z,15.24
2019-02-15T12:41:57.181Z,15.12
2019-02-15T12:44:24.815Z,15.27
2019-02-15T12:46:52.444Z,15.37
2019-02-15T12:49:20.045Z,14.99
2019-02-15T12:51:47.678Z,15.00
2019-02-15T12:54:15.280Z,15.21
2019-02-15T12:56:42.834Z,15.41
2019-02-15T12:59:10.504Z,15.21
2019-02-15T13:01:38.145Z,15.75
2019-02-15T13:04:05.831Z,15.92
2019-02-15T13:06:33.386Z,15.65
2019-02-15T13:09:01.002Z,15.45
2019-02-15T13:11:28.585Z,15.34
2019-02-15T13:13:56.249Z,15.66
2019-02-15T13:16:23.784Z,15.73
2019-02-15T13:18:51.426Z,15.84
2019-02-15T13:21:18.989Z,15.80
2019-02-15T13:23:46.691Z,16.20
2019-02-15T13:26:14.268Z,16.15
2019-02-15T13:28:44.848Z,16.01
2019-02-15T13:31:12.380Z,15.87
2019-02-15T13:33:39.991Z,16.02
2019-02-15T13:36:07.558Z,15.82
2019-02-15T13:38:35.234Z,15.83
2019-02-15T13:41:02.897Z,16.17
2019-02-15T13:43:30.597Z,16.25
2019-02-15T13:45:58.328Z,16.80
2019-02-15T13:48:25.964Z,16.80
2019-02-15T13:50:53.713Z,16.81
2019-02-15T13:53:21.417Z,16.49
2019-02-15T13:55:49.054Z,16.71
2019-02-15T13:58:16.652Z,16.94
2019-02-15T14:00:44.359Z,16.97
2019-02-15T14:03:11.943Z,16.60
2019-02-15T14:05:42.363Z,16.95
2019-02-15T14:08:09.992Z,17.05
2019-02-15T14:10:37.553Z,16.97
2019-02-15T14:13:05.221Z,16.70
2019-02-15T14:15:32.832Z,16.84
2019-02-15T14:18:00.430Z,16.80
2019-02-15T14:20:27.978Z,16.99
2019-02-15T14:22:58.031Z,16.26
2019-02-15T14:25:26.022Z,16.11
2019-02-15T14:27:54.434Z,16.43
2019-02-15T14:30:21.942Z,16.25
2019-02-15T14:32:49.588Z,16.40
2019-02-15T14:35:17.155Z,16.57
2019-02-15T14:37:45.416Z,16.61
2019-02-15T14:40:13.160Z,17.01
2019-02-15T14:42:40.751Z,15.95
2019-02-15T14:45:08.810Z,15.66
2019-02-15T14:47:36.459Z,15.95
2019-02-15T14:50:04.289Z,15.90
2019-02-15T14:52:31.964Z,15.83
2019-02-15T14:54:59.590Z,15.52
2019-02-15T14:57:28.160Z,15.42
2019-02-15T14:59:55.808Z,15.13
2019-02-15T15:02:23.347Z,14.99
2019-02-15T15:04:50.958Z,14.71
2019-02-15T15:07:18.654Z,14.54
2019-02-15T15:09:46.314Z,14.22
2019-02-15T15:12:13.901Z,13.94
2019-02-15T15:14:41.571Z,14.02
2019-02-15T15:17:09.142Z,13.86
2019-02-15T15:19:36.744Z,13.91
2019-02-15T15:22:04.341Z,13.76
2019-02-15T15:24:34.890Z,13.72
2019-02-15T15:27:02.451Z,13.56
2019-02-15T15:29:30.054Z,13.69
2019-02-15T15:31:57.660Z,13.72
2019-02-15T15:34:25.228Z,13.69
2019-02-15T15:36:52.960Z,13.50
2019-02-15T15:39:20.632Z,13.69
2019-02-15T15:41:48.320Z,13.74
2019-02-15T15:44:15.997Z,13.64
2019-02-15T15:46:43.612Z,13.51
2019-02-15T15:49:11.275Z,13.49
2019-02-15T15:51:39.086Z,13.16
2019-02-15T15:54:06.824Z,12.94
2019-02-15T15:56:34.479Z,12.51
2019-02-15T15:59:02.093Z,12.30
2019-02-15T16:01:29.783Z,12.10
2019-02-15T16:03:59.987Z,11.91
2019-02-15T16:06:27.645Z,11.74
2019-02-15T16:08:55.345Z,11.44
2019-02-15T16:11:23.008Z,11.16
2019-02-15T16:13:50.717Z,11.13
2019-02-15T16:16:18.508Z,11.09
2019-02-15T16:18:46.220Z,10.98
2019-02-15T16:21:14.601Z,10.90
2019-02-15T16:23:42.341Z,10.67
2019-02-15T16:26:10.071Z,10.43
2019-02-15T16:28:37.799Z,10.35
2019-02-15T16:31:05.484Z,10.23
2019-02-15T16:33:33.177Z,10.08
2019-02-15T16:36:00.934Z,9.70
2019-02-15T16:38:28.639Z,9.25
2019-02-15T16:40:59.032Z,8.99
2019-02-15T16:43:26.758Z,8.73
2019-02-15T16:45:54.418Z,8.43
2019-02-15T16:48:21.989Z,8.25
2019-02-15T16:50:49.659Z,8.03
2019-02-15T16:53:17.192Z,7.81
2019-02-15T16:55:44.842Z,7.66
2019-02-15T16:58:12.519Z,7.58
2019-02-15T17:00:40.206Z,7.39
2019-02-15T17:03:07.752Z,7.12
2019-02-15T17:05:35.446Z,6.97
2019-02-15T17:08:03.084Z,6.69
2019-02-15T17:10:30.731Z,6.52
2019-02-15T17:12:58.297Z,6.47
2019-02-15T17:15:25.896Z,6.31
2019-02-15T17:17:53.472Z,6.17
2019-02-15T17:20:21.045Z,6.09
2019-02-15T17:22:48.683Z,6.00
2019-02-15T17:25:16.448Z,5.85
2019-02-15T17:27:44.017Z,5.76
2019-02-15T17:30:11.550Z,5.65
2019-02-15T17:32:40.189Z,5.55
2019-02-15T17:35:08.171Z,5.56
2019-02-15T17:37:35.792Z,5.40
2019-02-15T17:40:03.805Z,5.30
2019-02-15T17:42:31.505Z,5.18
2019-02-15T17:44:59.178Z,5.14
2019-02-15T17:47:26.782Z,5.08
2019-02-15T17:49:54.345Z,4.94
2019-02-15T17:52:21.982Z,4.77
2019-02-15T17:54:49.572Z,4.71
2019-02-15T17:57:17.200Z,4.75
2019-02-15T17:59:44.810Z,4.76
2019-02-15T18:02:12.399Z,4.75
2019-02-15T18:04:40.064Z,4.63
2019-02-15T18:07:07.728Z,4.38
2019-02-15T18:09:35.386Z,4.33
2019-02-15T18:12:03.028Z,4.30
2019-02-15T18:14:30.601Z,4.29
2019-02-15T18:16:59.129Z,4.30
2019-02-15T18:19:26.875Z,4.28
2019-02-15T18:21:54.457Z,4.22
2019-02-15T18:24:22.096Z,4.19
2019-02-15T18:26:49.720Z,4.13
2019-02-15T18:29:17.335Z,4.07
2019-02-15T18:31:45.446Z,4.04
2019-02-15T18:34:13.849Z,4.00
2019-02-15T18:36:41.410Z,3.98
2019-02-15T18:39:09.411Z,3.93
2019-02-15T18:41:36.932Z,3.89
2019-02-15T18:44:04.660Z,3.79
2019-02-15T18:46:32.201Z,3.71
2019-02-15T18:49:00.557Z,3.67
2019-02-15T18:51:28.334Z,3.59
2019-02-15T18:53:56.283Z,3.57
2019-02-15T18:56:24.144Z,3.53
2019-02-15T18:58:51.787Z,3.49
2019-02-15T19:01:19.362Z,3.48
2019-02-15T19:03:47.002Z,3.40
2019-02-15T19:06:14.625Z,3.29
2019-02-15T19:08:42.329Z,3.27
2019-02-15T19:11:09.887Z,3.19
2019-02-15T19:13:37.598Z,3.12
2019-02-15T19:16:05.184Z,3.04
2019-02-15T19:18:32.955Z,3.03
2019-02-15T19:21:00.838Z,2.99
2019-02-15T19:23:28.498Z,2.96
2019-02-15T19:25:56.200Z,2.95
2019-02-15T19:28:23.880Z,2.96
2019-02-15T19:30:51.465Z,2.94
2019-02-15T19:33:19.126Z,2.63
2019-02-15T19:35:46.722Z,2.44
2019-02-15T19:38:14.541Z,2.44
2019-02-15T19:40:42.182Z,2.51
2019-02-15T19:43:10.203Z,2.51
2019-02-15T19:45:37.868Z,2.44
2019-02-15T19:48:05.549Z,2.31
2019-02-15T19:50:33.167Z,2.36
2019-02-15T19:53:00.758Z,2.26
2019-02-15T19:55:28.444Z,2.23
2019-02-15T19:57:55.981Z,2.23
2019-02-15T20:00:24.378Z,2.21
2019-02-15T20:02:51.952Z,2.19
2019-02-15T20:05:19.613Z,2.11
2019-02-15T20:07:47.183Z,2.10
2019-02-15T20:10:16.621Z,2.11
2019-02-15T20:12:46.309Z,2.10
2019-02-15T20:15:14.748Z,2.08
2019-02-15T20:17:42.856Z,2.08
2019-02-15T20:20:12.386Z,2.02
2019-02-15T20:22:40.382Z,1.99
2019-02-15T20:25:09.176Z,2.00
2019-02-15T20:27:37.247Z,1.98
2019-02-15T20:30:07.362Z,1.89
2019-02-15T20:32:35.345Z,1.84
2019-02-15T20:35:03.391Z,1.82
2019-02-15T20:37:31.361Z,1.80
2019-02-15T20:39:59.375Z,1.72
2019-02-15T20:42:27.594Z,1.73
2019-02-15T20:44:55.718Z,1.60
2019-02-15T20:47:24.085Z,1.52
2019-02-15T20:49:58.093Z,1.54
2019-02-15T20:52:22.212Z,1.57
2019-02-15T20:54:50.142Z,1.53
2019-02-15T20:57:18.152Z,1.48
2019-02-15T20:59:46.258Z,1.40
2019-02-15T21:02:14.464Z,1.43
2019-02-15T21:04:42.589Z,1.39
2019-02-15T21:07:10.904Z,1.38
2019-02-15T21:09:38.865Z,1.36
2019-02-15T21:12:06.824Z,1.28
2019-02-15T21:14:36.151Z,1.20
2019-02-15T21:17:04.198Z,1.18
2019-02-15T21:19:32.021Z,1.18
2019-02-15T21:21:59.956Z,1.16
2019-02-15T21:24:28.069Z,1.14
2019-02-15T21:26:55.930Z,1.10
2019-02-15T21:29:25.493Z,1.05
2019-02-15T21:31:53.378Z,1.04
2019-02-15T21:34:21.452Z,1.01
2019-02-15T21:36:49.340Z,0.99
2019-02-15T21:39:17.382Z,0.92
2019-02-15T21:41:45.341Z,0.90
2019-02-15T21:44:13.318Z,0.90
2019-02-15T21:46:41.628Z,0.88
2019-02-15T21:49:09.573Z,0.86
2019-02-15T21:51:37.570Z,0.83
2019-02-15T21:54:05.521Z,0.81
2019-02-15T21:56:33.479Z,0.72
2019-02-15T21:59:01.567Z,0.75
2019-02-15T22:01:29.393Z,0.72
2019-02-15T22:03:57.009Z,0.69
2019-02-15T22:06:24.603Z,0.65
2019-02-15T22:08:52.321Z,0.56
2019-02-15T22:11:19.883Z,0.41
2019-02-15T22:13:47.542Z,0.44
2019-02-15T22:16:15.265Z,0.40
2019-02-15T22:18:43.230Z,0.34
2019-02-15T22:21:11.125Z,0.34
2019-02-15T22:23:39.295Z,0.35
2019-02-15T22:26:07.379Z,0.30
2019-02-15T22:28:35.192Z,0.25
2019-02-15T22:31:04.333Z,0.26
2019-02-15T22:33:32.623Z,0.31
2019-02-15T22:36:00.207Z,0.26
2019-02-15T22:38:27.934Z,0.19
2019-02-15T22:41:15.855Z,0.15
2019-02-15T22:43:44.366Z,0.18
2019-02-15T22:46:11.955Z,0.17
2019-02-15T22:48:39.705Z,0.11
2019-02-15T22:51:07.290Z,-0.05
2019-02-15T22:53:34.993Z,-0.01
2019-02-15T22:56:02.572Z,0.02
2019-02-15T22:58:31.381Z,0.02
2019-02-15T23:01:11.389Z,0.02
2019-02-15T23:03:40.112Z,0.01
2019-02-15T23:06:07.665Z,-0.07
2019-02-15T23:08:35.309Z,-0.11
2019-02-15T23:11:02.860Z,-0.13
2019-02-15T23:13:30.557Z,-0.12
2019-02-15T23:15:58.092Z,-0.11
2019-02-15T23:18:25.727Z,-0.15
2019-02-15T23:20:53.369Z,-0.15
2019-02-15T23:23:21.086Z,-0.21
2019-02-15T23:25:48.724Z,-0.35
2019-02-15T23:28:16.418Z,-0.33
2019-02-15T23:30:44.371Z,-0.35
2019-02-15T23:33:12.091Z,-0.39
2019-02-15T23:35:39.781Z,-0.38
2019-02-15T23:38:07.384Z,-0.41
2019-02-15T23:40:35.145Z,-0.41
2019-02-15T23:43:02.792Z,-0.40
2019-02-15T23:45:30.443Z,-0.49
2019-02-15T23:47:58.044Z,-0.38
2019-02-15T23:50:25.651Z,-0.41
2019-02-15T23:52:53.278Z,-0.44
2019-02-15T23:55:20.860Z,-0.48
2019-02-15T23:57:48.495Z,-0.50
